sensor_id;sensor_type;location;lat;lon;timestamp;pressure;altitude;pressure_sealevel;temperature;humidity
77041;BME280;65974;42.664;23.264;2023-07-31T00:02:01;94085.47;;;19.72;78.57
77041;BME280;65974;42.664;23.264;2023-07-31T00:04:26;94099.72;;;19.72;78.69
77041;BME280;65974;42.664;23.264;2023-07-31T00:06:52;94098.94;;;19.63;78.40
77041;BME280;65974;42.664;23.264;2023-07-31T00:09:17;94100.75;;;19.66;78.10
77041;BME280;65974;42.664;23.264;2023-07-31T00:11:43;94099.09;;;19.68;77.24
77041;BME280;65974;42.664;23.264;2023-07-31T00:14:08;94098.34;;;19.68;77.42
77041;BME280;65974;42.664;23.264;2023-07-31T00:16:34;94099.41;;;19.61;77.57
77041;BME280;65974;42.664;23.264;2023-07-31T00:18:59;94095.78;;;19.64;77.98
77041;BME280;65974;42.664;23.264;2023-07-31T00:21:24;94086.50;;;19.65;77.76
77041;BME280;65974;42.664;23.264;2023-07-31T00:23:50;94082.91;;;19.68;77.63
77041;BME280;65974;42.664;23.264;2023-07-31T00:26:15;94074.97;;;19.74;76.83
77041;BME280;65974;42.664;23.264;2023-07-31T00:28:41;94062.97;;;19.75;76.94
77041;BME280;65974;42.664;23.264;2023-07-31T00:31:06;94067.78;;;19.80;75.88
77041;BME280;65974;42.664;23.264;2023-07-31T00:33:32;94057.13;;;19.85;75.42
77041;BME280;65974;42.664;23.264;2023-07-31T00:35:57;94050.66;;;19.83;74.45
77041;BME280;65974;42.664;23.264;2023-07-31T00:38:22;94041.53;;;19.89;74.81
77041;BME280;65974;42.664;23.264;2023-07-31T00:40:48;94041.53;;;19.89;74.87
77041;BME280;65974;42.664;23.264;2023-07-31T00:43:13;94046.22;;;19.89;75.00
77041;BME280;65974;42.664;23.264;2023-07-31T00:45:39;94045.88;;;19.87;75.05
77041;BME280;65974;42.664;23.264;2023-07-31T00:48:05;94055.19;;;19.86;75.36
77041;BME280;65974;42.664;23.264;2023-07-31T00:50:34;94055.66;;;19.84;75.91
77041;BME280;65974;42.664;23.264;2023-07-31T00:53:00;94047.34;;;19.79;76.19
77041;BME280;65974;42.664;23.264;2023-07-31T00:55:25;94055.91;;;19.77;76.57
77041;BME280;65974;42.664;23.264;2023-07-31T00:57:52;94053.97;;;19.78;76.66
77041;BME280;65974;42.664;23.264;2023-07-31T01:00:19;94050.06;;;19.79;76.83
77041;BME280;65974;42.664;23.264;2023-07-31T01:02:44;94054.59;;;19.82;76.18
77041;BME280;65974;42.664;23.264;2023-07-31T01:05:10;94047.97;;;19.83;75.98
77041;BME280;65974;42.664;23.264;2023-07-31T01:07:49;94053.06;;;19.81;76.39
77041;BME280;65974;42.664;23.264;2023-07-31T01:10:23;94051.44;;;19.83;75.97
77041;BME280;65974;42.664;23.264;2023-07-31T01:12:51;94044.53;;;19.82;76.27
77041;BME280;65974;42.664;23.264;2023-07-31T01:15:17;94041.06;;;19.82;76.30
77041;BME280;65974;42.664;23.264;2023-07-31T01:17:43;94036.69;;;19.75;76.80
77041;BME280;65974;42.664;23.264;2023-07-31T01:20:21;94036.25;;;19.77;76.82
77041;BME280;65974;42.664;23.264;2023-07-31T01:26:09;94049.13;;;19.73;77.39
77041;BME280;65974;42.664;23.264;2023-07-31T01:28:46;94043.44;;;19.71;77.67
77041;BME280;65974;42.664;23.264;2023-07-31T01:31:18;94027.06;;;19.65;77.91
77041;BME280;65974;42.664;23.264;2023-07-31T01:33:45;94034.09;;;19.63;78.27
77041;BME280;65974;42.664;23.264;2023-07-31T01:36:11;94035.72;;;19.60;78.93
77041;BME280;65974;42.664;23.264;2023-07-31T01:38:37;94029.09;;;19.52;79.16
77041;BME280;65974;42.664;23.264;2023-07-31T01:41:02;94033.19;;;19.57;79.23
77041;BME280;65974;42.664;23.264;2023-07-31T01:43:28;94035.44;;;19.58;79.31
77041;BME280;65974;42.664;23.264;2023-07-31T01:45:53;94035.88;;;19.57;79.28
77041;BME280;65974;42.664;23.264;2023-07-31T01:48:19;94030.16;;;19.55;79.37
77041;BME280;65974;42.664;23.264;2023-07-31T01:50:44;94031.91;;;19.49;79.70
77041;BME280;65974;42.664;23.264;2023-07-31T01:53:09;94033.69;;;19.43;80.15
77041;BME280;65974;42.664;23.264;2023-07-31T01:55:37;94039.09;;;19.43;80.27
77041;BME280;65974;42.664;23.264;2023-07-31T01:58:02;94040.88;;;19.37;80.62
77041;BME280;65974;42.664;23.264;2023-07-31T02:00:28;94040.88;;;19.37;80.57
77041;BME280;65974;42.664;23.264;2023-07-31T02:02:53;94033.38;;;19.41;80.58
77041;BME280;65974;42.664;23.264;2023-07-31T02:05:19;94040.00;;;19.40;80.54
77041;BME280;65974;42.664;23.264;2023-07-31T02:07:44;94038.69;;;19.44;80.11
77041;BME280;65974;42.664;23.264;2023-07-31T02:10:09;94042.09;;;19.45;80.48
77041;BME280;65974;42.664;23.264;2023-07-31T02:12:35;94046.88;;;19.41;80.66
77041;BME280;65974;42.664;23.264;2023-07-31T02:15:00;94052.19;;;19.44;80.55
77041;BME280;65974;42.664;23.264;2023-07-31T02:17:26;94048.13;;;19.49;80.32
77041;BME280;65974;42.664;23.264;2023-07-31T02:19:51;94042.59;;;19.52;80.56
77041;BME280;65974;42.664;23.264;2023-07-31T02:22:17;94044.25;;;19.50;80.58
77041;BME280;65974;42.664;23.264;2023-07-31T02:24:43;94044.09;;;19.53;80.30
77041;BME280;65974;42.664;23.264;2023-07-31T02:27:08;94049.50;;;19.53;80.81
77041;BME280;65974;42.664;23.264;2023-07-31T02:29:34;94049.69;;;19.59;80.27
77041;BME280;65974;42.664;23.264;2023-07-31T02:31:59;94052.41;;;19.59;80.00
77041;BME280;65974;42.664;23.264;2023-07-31T02:34:24;94048.38;;;19.63;79.57
77041;BME280;65974;42.664;23.264;2023-07-31T02:36:50;94045.22;;;19.65;79.51
77041;BME280;65974;42.664;23.264;2023-07-31T02:39:15;94034.25;;;19.68;79.05
77041;BME280;65974;42.664;23.264;2023-07-31T02:41:41;94041.19;;;19.69;78.88
77041;BME280;65974;42.664;23.264;2023-07-31T02:44:06;94048.06;;;19.70;78.72
77041;BME280;65974;42.664;23.264;2023-07-31T02:46:31;94048.38;;;19.72;78.65
77041;BME280;65974;42.664;23.264;2023-07-31T02:48:57;94051.56;;;19.80;78.58
77041;BME280;65974;42.664;23.264;2023-07-31T02:51:22;94058.94;;;19.79;78.38
77041;BME280;65974;42.664;23.264;2023-07-31T02:53:48;94058.47;;;19.81;78.19
77041;BME280;65974;42.664;23.264;2023-07-31T02:56:13;94060.28;;;19.84;78.04
77041;BME280;65974;42.664;23.264;2023-07-31T02:58:40;94058.66;;;19.86;77.80
77041;BME280;65974;42.664;23.264;2023-07-31T03:01:07;94059.72;;;19.89;77.71
77041;BME280;65974;42.664;23.264;2023-07-31T03:03:32;94059.28;;;19.90;77.79
77041;BME280;65974;42.664;23.264;2023-07-31T03:05:58;94066.78;;;19.86;77.85
77041;BME280;65974;42.664;23.264;2023-07-31T03:08:24;94063.00;;;19.84;78.16
77041;BME280;65974;42.664;23.264;2023-07-31T03:10:49;94065.69;;;19.84;78.12
77041;BME280;65974;42.664;23.264;2023-07-31T03:13:14;94072.28;;;19.83;78.32
77041;BME280;65974;42.664;23.264;2023-07-31T03:15:42;94076.06;;;19.85;78.30
77041;BME280;65974;42.664;23.264;2023-07-31T03:18:08;94074.88;;;19.86;77.99
77041;BME280;65974;42.664;23.264;2023-07-31T03:20:33;94077.13;;;19.88;78.09
77041;BME280;65974;42.664;23.264;2023-07-31T03:22:59;94082.22;;;19.86;78.04
77041;BME280;65974;42.664;23.264;2023-07-31T03:25:24;94079.84;;;19.88;78.33
77041;BME280;65974;42.664;23.264;2023-07-31T03:27:50;94082.69;;;19.93;77.94
77041;BME280;65974;42.664;23.264;2023-07-31T03:30:15;94080.28;;;19.95;77.61
77041;BME280;65974;42.664;23.264;2023-07-31T03:32:40;94082.13;;;19.98;77.63
77041;BME280;65974;42.664;23.264;2023-07-31T03:35:06;94087.97;;;19.97;77.35
77041;BME280;65974;42.664;23.264;2023-07-31T03:37:32;94085.88;;;20.01;77.18
77041;BME280;65974;42.664;23.264;2023-07-31T03:39:57;94093.84;;;20.04;76.81
77041;BME280;65974;42.664;23.264;2023-07-31T03:42:22;94089.34;;;20.01;76.56
77041;BME280;65974;42.664;23.264;2023-07-31T03:44:48;94102.28;;;20.06;76.63
77041;BME280;65974;42.664;23.264;2023-07-31T03:47:13;94101.50;;;20.06;76.33
77041;BME280;65974;42.664;23.264;2023-07-31T03:49:39;94100.59;;;20.00;76.94
77041;BME280;65974;42.664;23.264;2023-07-31T03:52:04;94106.00;;;20.00;76.96
77041;BME280;65974;42.664;23.264;2023-07-31T03:54:30;94102.56;;;19.99;76.98
77041;BME280;65974;42.664;23.264;2023-07-31T03:56:55;94101.63;;;19.93;77.31
77041;BME280;65974;42.664;23.264;2023-07-31T03:59:21;94111.69;;;19.93;77.33
77041;BME280;65974;42.664;23.264;2023-07-31T04:01:47;94112.56;;;19.90;77.37
77041;BME280;65974;42.664;23.264;2023-07-31T04:04:12;94112.13;;;19.91;77.32
77041;BME280;65974;42.664;23.264;2023-07-31T04:06:38;94112.88;;;19.92;77.12
77041;BME280;65974;42.664;23.264;2023-07-31T04:09:03;94116.97;;;19.96;76.88
77041;BME280;65974;42.664;23.264;2023-07-31T04:11:29;94110.38;;;19.97;76.78
77041;BME280;65974;42.664;23.264;2023-07-31T04:13:54;94107.97;;;19.99;76.53
77041;BME280;65974;42.664;23.264;2023-07-31T04:16:19;94115.94;;;20.03;76.30
77041;BME280;65974;42.664;23.264;2023-07-31T04:18:45;94117.13;;;20.02;76.15
77041;BME280;65974;42.664;23.264;2023-07-31T04:21:10;94122.97;;;20.00;75.83
77041;BME280;65974;42.664;23.264;2023-07-31T04:23:36;94115.31;;;19.99;75.77
77041;BME280;65974;42.664;23.264;2023-07-31T04:26:01;94118.78;;;19.99;75.76
77041;BME280;65974;42.664;23.264;2023-07-31T04:28:26;94123.28;;;20.02;75.94
77041;BME280;65974;42.664;23.264;2023-07-31T04:30:52;94124.03;;;20.03;75.21
77041;BME280;65974;42.664;23.264;2023-07-31T04:33:18;94131.09;;;20.00;75.71
77041;BME280;65974;42.664;23.264;2023-07-31T04:35:54;94117.41;;;20.04;75.80
77041;BME280;65974;42.664;23.264;2023-07-31T04:38:20;94121.03;;;20.01;75.68
77041;BME280;65974;42.664;23.264;2023-07-31T04:40:46;94126.28;;;20.04;75.63
77041;BME280;65974;42.664;23.264;2023-07-31T04:43:12;94123.78;;;20.10;75.48
77041;BME280;65974;42.664;23.264;2023-07-31T04:45:38;94114.00;;;20.12;75.08
77041;BME280;65974;42.664;23.264;2023-07-31T04:48:03;94109.97;;;20.17;74.56
77041;BME280;65974;42.664;23.264;2023-07-31T04:50:29;94110.88;;;20.14;74.93
77041;BME280;65974;42.664;23.264;2023-07-31T04:52:55;94117.16;;;20.11;74.80
77041;BME280;65974;42.664;23.264;2023-07-31T04:55:21;94109.03;;;20.11;75.11
77041;BME280;65974;42.664;23.264;2023-07-31T04:57:46;94113.28;;;20.12;74.86
77041;BME280;65974;42.664;23.264;2023-07-31T05:00:12;94109.66;;;20.15;74.71
77041;BME280;65974;42.664;23.264;2023-07-31T05:02:37;94106.53;;;20.17;74.57
77041;BME280;65974;42.664;23.264;2023-07-31T05:05:03;94114.81;;;20.22;74.58
77041;BME280;65974;42.664;23.264;2023-07-31T05:07:28;94106.13;;;20.27;74.21
77041;BME280;65974;42.664;23.264;2023-07-31T05:09:54;94120.53;;;20.24;73.46
77041;BME280;65974;42.664;23.264;2023-07-31T05:12:19;94119.03;;;20.23;73.73
77041;BME280;65974;42.664;23.264;2023-07-31T05:14:45;94117.84;;;20.24;74.08
77041;BME280;65974;42.664;23.264;2023-07-31T05:17:10;94118.72;;;20.21;73.98
77041;BME280;65974;42.664;23.264;2023-07-31T05:19:35;94109.72;;;20.24;74.14
77041;BME280;65974;42.664;23.264;2023-07-31T05:22:01;94112.13;;;20.22;73.95
77041;BME280;65974;42.664;23.264;2023-07-31T05:24:26;94119.47;;;20.22;73.99
77041;BME280;65974;42.664;23.264;2023-07-31T05:26:52;94121.22;;;20.16;73.46
77041;BME280;65974;42.664;23.264;2023-07-31T05:29:17;94115.59;;;20.23;73.49
77041;BME280;65974;42.664;23.264;2023-07-31T05:31:43;94109.72;;;20.24;73.76
77041;BME280;65974;42.664;23.264;2023-07-31T05:34:08;94119.97;;;20.29;73.59
77041;BME280;65974;42.664;23.264;2023-07-31T05:36:33;94116.03;;;20.30;72.55
77041;BME280;65974;42.664;23.264;2023-07-31T05:38:59;94118.94;;;20.36;72.49
77041;BME280;65974;42.664;23.264;2023-07-31T05:41:24;94128.84;;;20.39;71.32
77041;BME280;65974;42.664;23.264;2023-07-31T05:43:50;94115.50;;;20.44;70.34
77041;BME280;65974;42.664;23.264;2023-07-31T05:46:16;94114.59;;;20.47;68.97
77041;BME280;65974;42.664;23.264;2023-07-31T05:48:42;94106.78;;;20.58;69.83
77041;BME280;65974;42.664;23.264;2023-07-31T05:51:07;94118.81;;;20.66;70.25
77041;BME280;65974;42.664;23.264;2023-07-31T05:53:33;94111.75;;;20.69;70.13
77041;BME280;65974;42.664;23.264;2023-07-31T05:55:58;94119.13;;;20.68;70.74
77041;BME280;65974;42.664;23.264;2023-07-31T05:58:23;94119.00;;;20.72;69.33
77041;BME280;65974;42.664;23.264;2023-07-31T06:00:49;94118.84;;;20.75;68.62
77041;BME280;65974;42.664;23.264;2023-07-31T06:03:15;94119.16;;;20.77;68.51
77041;BME280;65974;42.664;23.264;2023-07-31T06:05:40;94130.28;;;20.79;67.59
77041;BME280;65974;42.664;23.264;2023-07-31T06:08:06;94119.72;;;20.72;66.51
77041;BME280;65974;42.664;23.264;2023-07-31T06:10:31;94129.81;;;20.81;66.02
77041;BME280;65974;42.664;23.264;2023-07-31T06:12:56;94129.50;;;20.79;64.41
77041;BME280;65974;42.664;23.264;2023-07-31T06:15:22;94133.59;;;20.83;64.35
77041;BME280;65974;42.664;23.264;2023-07-31T06:17:48;94143.53;;;20.86;64.19
77041;BME280;65974;42.664;23.264;2023-07-31T06:20:13;94141.41;;;20.91;63.46
77041;BME280;65974;42.664;23.264;2023-07-31T06:22:38;94127.25;;;20.96;63.54
77041;BME280;65974;42.664;23.264;2023-07-31T06:25:04;94134.97;;;20.97;63.03
77041;BME280;65974;42.664;23.264;2023-07-31T06:27:30;94145.63;;;21.01;63.62
77041;BME280;65974;42.664;23.264;2023-07-31T06:29:56;94140.81;;;20.96;62.98
77041;BME280;65974;42.664;23.264;2023-07-31T06:32:21;94131.19;;;20.95;63.64
77041;BME280;65974;42.664;23.264;2023-07-31T06:34:47;94138.72;;;21.00;63.65
77041;BME280;65974;42.664;23.264;2023-07-31T06:37:12;94143.25;;;21.03;64.27
77041;BME280;65974;42.664;23.264;2023-07-31T06:39:38;94145.97;;;21.12;64.86
77041;BME280;65974;42.664;23.264;2023-07-31T06:42:03;94140.25;;;21.19;64.02
77041;BME280;65974;42.664;23.264;2023-07-31T06:44:29;94145.66;;;21.28;63.61
77041;BME280;65974;42.664;23.264;2023-07-31T06:46:55;94145.94;;;21.30;63.67
77041;BME280;65974;42.664;23.264;2023-07-31T06:49:20;94136.16;;;21.23;63.38
77041;BME280;65974;42.664;23.264;2023-07-31T06:51:45;94147.63;;;21.18;63.27
77041;BME280;65974;42.664;23.264;2023-07-31T06:54:11;94136.19;;;21.14;63.52
77041;BME280;65974;42.664;23.264;2023-07-31T06:56:36;94134.69;;;21.22;62.53
77041;BME280;65974;42.664;23.264;2023-07-31T06:59:03;94139.63;;;21.33;62.60
77041;BME280;65974;42.664;23.264;2023-07-31T07:01:28;94134.94;;;21.42;62.56
77041;BME280;65974;42.664;23.264;2023-07-31T07:03:54;94135.88;;;21.48;61.84
77041;BME280;65974;42.664;23.264;2023-07-31T07:06:19;94124.28;;;21.48;61.42
77041;BME280;65974;42.664;23.264;2023-07-31T07:08:45;94129.22;;;21.58;61.59
77041;BME280;65974;42.664;23.264;2023-07-31T07:11:10;94126.34;;;21.62;60.92
77041;BME280;65974;42.664;23.264;2023-07-31T07:13:36;94121.84;;;21.59;60.86
77041;BME280;65974;42.664;23.264;2023-07-31T07:16:01;94124.56;;;21.59;60.62
77041;BME280;65974;42.664;23.264;2023-07-31T07:18:27;94125.75;;;21.58;59.99
77041;BME280;65974;42.664;23.264;2023-07-31T07:20:53;94131.16;;;21.58;59.98
77041;BME280;65974;42.664;23.264;2023-07-31T07:23:19;94136.88;;;21.60;60.29
77041;BME280;65974;42.664;23.264;2023-07-31T07:25:47;94128.91;;;21.56;59.85
77041;BME280;65974;42.664;23.264;2023-07-31T07:28:13;94137.81;;;21.57;60.16
77041;BME280;65974;42.664;23.264;2023-07-31T07:30:39;94126.03;;;21.60;59.53
77041;BME280;65974;42.664;23.264;2023-07-31T07:33:05;94128.75;;;21.69;59.61
77041;BME280;65974;42.664;23.264;2023-07-31T07:35:33;94124.22;;;21.84;59.51
77041;BME280;65974;42.664;23.264;2023-07-31T07:37:59;94133.50;;;22.01;59.29
77041;BME280;65974;42.664;23.264;2023-07-31T07:40:26;94129.56;;;22.02;58.87
77041;BME280;65974;42.664;23.264;2023-07-31T07:42:51;94141.47;;;22.05;58.58
77041;BME280;65974;42.664;23.264;2023-07-31T07:45:17;94140.69;;;22.04;58.56
77041;BME280;65974;42.664;23.264;2023-07-31T07:47:43;94138.16;;;22.01;58.85
77041;BME280;65974;42.664;23.264;2023-07-31T07:50:08;94138.75;;;22.05;58.92
77041;BME280;65974;42.664;23.264;2023-07-31T07:52:34;94142.63;;;22.13;58.62
77041;BME280;65974;42.664;23.264;2023-07-31T07:55:00;94138.75;;;22.05;59.04
77041;BME280;65974;42.664;23.264;2023-07-31T07:57:26;94150.06;;;22.03;58.91
77041;BME280;65974;42.664;23.264;2023-07-31T07:59:52;94149.78;;;22.01;58.71
77041;BME280;65974;42.664;23.264;2023-07-31T08:02:17;94153.03;;;22.14;59.31
77041;BME280;65974;42.664;23.264;2023-07-31T08:04:43;94144.13;;;22.23;58.09
77041;BME280;65974;42.664;23.264;2023-07-31T08:07:11;94148.28;;;22.33;58.28
77041;BME280;65974;42.664;23.264;2023-07-31T08:09:37;94148.47;;;22.29;56.38
77041;BME280;65974;42.664;23.264;2023-07-31T08:12:03;94151.59;;;22.37;56.44
77041;BME280;65974;42.664;23.264;2023-07-31T08:14:29;94145.53;;;22.42;56.12
77041;BME280;65974;42.664;23.264;2023-07-31T08:16:54;94136.16;;;22.43;56.38
77041;BME280;65974;42.664;23.264;2023-07-31T08:19:20;94144.28;;;22.52;56.27
77041;BME280;65974;42.664;23.264;2023-07-31T08:21:45;94141.97;;;22.60;55.86
77041;BME280;65974;42.664;23.264;2023-07-31T08:24:11;94144.94;;;22.71;55.17
77041;BME280;65974;42.664;23.264;2023-07-31T08:26:36;94154.94;;;22.88;54.59
77041;BME280;65974;42.664;23.264;2023-07-31T08:29:02;94147.13;;;22.81;53.62
77041;BME280;65974;42.664;23.264;2023-07-31T08:31:27;94149.09;;;22.81;53.23
77041;BME280;65974;42.664;23.264;2023-07-31T08:33:54;94143.38;;;22.79;53.88
77041;BME280;65974;42.664;23.264;2023-07-31T08:36:19;94148.53;;;22.77;53.51
77041;BME280;65974;42.664;23.264;2023-07-31T08:38:45;94143.09;;;22.77;53.71
77041;BME280;65974;42.664;23.264;2023-07-31T08:41:10;94141.69;;;22.81;54.41
77041;BME280;65974;42.664;23.264;2023-07-31T08:43:38;94150.59;;;22.82;54.84
77041;BME280;65974;42.664;23.264;2023-07-31T08:46:04;94139.56;;;22.85;53.92
77041;BME280;65974;42.664;23.264;2023-07-31T08:48:31;94140.50;;;22.82;54.80
77041;BME280;65974;42.664;23.264;2023-07-31T08:50:56;94148.19;;;22.84;54.38
77041;BME280;65974;42.664;23.264;2023-07-31T08:53:22;94135.66;;;22.86;53.94
77041;BME280;65974;42.664;23.264;2023-07-31T08:55:48;94140.94;;;22.81;52.89
77041;BME280;65974;42.664;23.264;2023-07-31T08:58:14;94145.47;;;22.84;52.86
77041;BME280;65974;42.664;23.264;2023-07-31T09:00:41;94137.66;;;23.00;52.44
77041;BME280;65974;42.664;23.264;2023-07-31T09:03:13;94144.69;;;23.07;51.71
77041;BME280;65974;42.664;23.264;2023-07-31T09:05:42;94144.91;;;23.18;51.61
77041;BME280;65974;42.664;23.264;2023-07-31T09:08:09;94147.63;;;23.18;51.72
77041;BME280;65974;42.664;23.264;2023-07-31T09:10:40;94143.41;;;23.17;52.08
77041;BME280;65974;42.664;23.264;2023-07-31T09:13:06;94143.88;;;23.15;52.70
77041;BME280;65974;42.664;23.264;2023-07-31T09:15:32;94142.09;;;23.12;52.70
77041;BME280;65974;42.664;23.264;2023-07-31T09:18:03;94130.75;;;23.14;52.16
77041;BME280;65974;42.664;23.264;2023-07-31T09:20:28;94127.97;;;23.23;51.64
77041;BME280;65974;42.664;23.264;2023-07-31T09:22:55;94132.44;;;23.35;51.75
77041;BME280;65974;42.664;23.264;2023-07-31T09:25:22;94139.00;;;23.43;51.52
77041;BME280;65974;42.664;23.264;2023-07-31T09:27:59;94117.25;;;23.43;51.27
77041;BME280;65974;42.664;23.264;2023-07-31T09:30:25;94118.94;;;23.55;52.33
77041;BME280;65974;42.664;23.264;2023-07-31T09:32:52;94119.88;;;23.67;52.29
77041;BME280;65974;42.664;23.264;2023-07-31T09:35:32;94116.69;;;23.68;51.52
77041;BME280;65974;42.664;23.264;2023-07-31T09:38:00;94115.56;;;23.75;52.04
77041;BME280;65974;42.664;23.264;2023-07-31T09:40:34;94108.72;;;23.94;50.60
77041;BME280;65974;42.664;23.264;2023-07-31T09:43:04;94113.59;;;23.90;50.25
77041;BME280;65974;42.664;23.264;2023-07-31T09:45:33;94122.88;;;23.98;50.31
77041;BME280;65974;42.664;23.264;2023-07-31T09:47:59;94113.28;;;24.03;50.54
77041;BME280;65974;42.664;23.264;2023-07-31T09:50:24;94109.75;;;24.11;50.33
77041;BME280;65974;42.664;23.264;2023-07-31T09:52:53;94104.41;;;24.17;49.76
77041;BME280;65974;42.664;23.264;2023-07-31T09:55:19;94109.91;;;24.22;50.11
77041;BME280;65974;42.664;23.264;2023-07-31T09:57:47;94106.91;;;24.20;49.35
77041;BME280;65974;42.664;23.264;2023-07-31T10:00:14;94104.41;;;24.17;48.19
77041;BME280;65974;42.664;23.264;2023-07-31T10:02:40;94101.13;;;24.13;49.66
77041;BME280;65974;42.664;23.264;2023-07-31T10:05:06;94106.19;;;24.05;48.56
77041;BME280;65974;42.664;23.264;2023-07-31T10:07:38;94104.72;;;24.04;48.55
77041;BME280;65974;42.664;23.264;2023-07-31T10:10:10;94101.31;;;24.09;49.49
77041;BME280;65974;42.664;23.264;2023-07-31T10:12:36;94095.81;;;24.24;49.16
77041;BME280;65974;42.664;23.264;2023-07-31T10:15:02;94093.06;;;24.38;48.42
77041;BME280;65974;42.664;23.264;2023-07-31T10:17:29;94097.25;;;24.54;47.25
77041;BME280;65974;42.664;23.264;2023-07-31T10:19:56;94107.97;;;24.57;47.31
77041;BME280;65974;42.664;23.264;2023-07-31T10:22:23;94105.03;;;24.61;46.82
77041;BME280;65974;42.664;23.264;2023-07-31T10:24:50;94095.00;;;24.52;46.34
77041;BME280;65974;42.664;23.264;2023-07-31T10:27:15;94090.03;;;24.51;45.88
77041;BME280;65974;42.664;23.264;2023-07-31T10:29:43;94089.56;;;24.52;45.89
77041;BME280;65974;42.664;23.264;2023-07-31T10:32:10;94082.00;;;24.62;45.96
77041;BME280;65974;42.664;23.264;2023-07-31T10:34:39;94085.44;;;24.77;46.30
77041;BME280;65974;42.664;23.264;2023-07-31T10:37:28;94076.06;;;24.78;45.41
77041;BME280;65974;42.664;23.264;2023-07-31T10:42:48;94077.00;;;24.75;44.84
77041;BME280;65974;42.664;23.264;2023-07-31T10:45:36;94082.13;;;24.73;44.97
77041;BME280;65974;42.664;23.264;2023-07-31T10:48:12;94082.25;;;24.79;44.34
77041;BME280;65974;42.664;23.264;2023-07-31T10:50:45;94069.16;;;24.83;43.98
77041;BME280;65974;42.664;23.264;2023-07-31T10:53:31;94071.00;;;24.91;44.33
77041;BME280;65974;42.664;23.264;2023-07-31T10:55:58;94067.84;;;24.98;43.55
77041;BME280;65974;42.664;23.264;2023-07-31T10:58:24;94070.31;;;24.96;43.10
77041;BME280;65974;42.664;23.264;2023-07-31T11:00:55;94060.69;;;25.01;42.99
77041;BME280;65974;42.664;23.264;2023-07-31T11:03:25;94065.75;;;25.08;42.05
77041;BME280;65974;42.664;23.264;2023-07-31T11:05:53;94053.41;;;25.12;42.69
77041;BME280;65974;42.664;23.264;2023-07-31T11:08:26;94053.94;;;25.16;42.67
77041;BME280;65974;42.664;23.264;2023-07-31T11:13:27;94054.50;;;25.46;40.29
77041;BME280;65974;42.664;23.264;2023-07-31T11:15:52;94061.25;;;25.51;39.76
77041;BME280;65974;42.664;23.264;2023-07-31T11:18:18;94055.56;;;25.54;39.77
77041;BME280;65974;42.664;23.264;2023-07-31T11:20:43;94041.53;;;25.67;41.16
77041;BME280;65974;42.664;23.264;2023-07-31T11:23:10;94045.66;;;25.88;40.35
77041;BME280;65974;42.664;23.264;2023-07-31T11:25:37;94050.44;;;25.98;40.47
77041;BME280;65974;42.664;23.264;2023-07-31T11:28:10;94053.53;;;26.11;40.49
77041;BME280;65974;42.664;23.264;2023-07-31T11:30:36;94043.19;;;26.21;40.21
77041;BME280;65974;42.664;23.264;2023-07-31T11:33:03;94054.66;;;26.31;40.16
77041;BME280;65974;42.664;23.264;2023-07-31T11:35:33;94059.19;;;26.39;39.27
77041;BME280;65974;42.664;23.264;2023-07-31T11:37:59;94050.91;;;26.28;40.38
77041;BME280;65974;42.664;23.264;2023-07-31T11:40:25;94045.69;;;26.25;41.04
77041;BME280;65974;42.664;23.264;2023-07-31T11:42:57;94044.50;;;26.31;41.74
77041;BME280;65974;42.664;23.264;2023-07-31T11:45:27;94050.03;;;26.42;41.08
77041;BME280;65974;42.664;23.264;2023-07-31T11:50:40;94051.31;;;26.52;39.95
77041;BME280;65974;42.664;23.264;2023-07-31T11:53:07;94047.34;;;26.53;39.25
77041;BME280;65974;42.664;23.264;2023-07-31T11:55:33;94049.06;;;26.51;39.45
77041;BME280;65974;42.664;23.264;2023-07-31T11:57:59;94036.13;;;26.46;39.66
77041;BME280;65974;42.664;23.264;2023-07-31T12:00:25;94041.44;;;26.66;39.36
77041;BME280;65974;42.664;23.264;2023-07-31T12:02:52;94039.66;;;26.57;39.80
77041;BME280;65974;42.664;23.264;2023-07-31T12:05:18;94045.44;;;26.70;39.85
77041;BME280;65974;42.664;23.264;2023-07-31T12:07:51;94040.03;;;26.76;39.62
77041;BME280;65974;42.664;23.264;2023-07-31T12:10:30;94036.06;;;26.88;38.16
77041;BME280;65974;42.664;23.264;2023-07-31T12:12:58;94017.44;;;26.86;39.67
77041;BME280;65974;42.664;23.264;2023-07-31T12:15:36;94025.97;;;27.11;39.99
77041;BME280;65974;42.664;23.264;2023-07-31T12:18:14;94025.72;;;27.14;40.12
77041;BME280;65974;42.664;23.264;2023-07-31T12:20:47;94025.50;;;27.29;39.18
77041;BME280;65974;42.664;23.264;2023-07-31T12:23:33;94020.25;;;27.20;40.05
77041;BME280;65974;42.664;23.264;2023-07-31T12:26:19;94024.44;;;26.99;40.18
77041;BME280;65974;42.664;23.264;2023-07-31T12:28:46;94024.38;;;26.82;40.22
77041;BME280;65974;42.664;23.264;2023-07-31T12:31:14;94017.66;;;26.77;39.33
77041;BME280;65974;42.664;23.264;2023-07-31T12:33:40;94018.59;;;26.63;39.18
77041;BME280;65974;42.664;23.264;2023-07-31T12:36:14;94025.88;;;26.83;39.04
77041;BME280;65974;42.664;23.264;2023-07-31T12:38:40;94020.44;;;26.88;38.87
77041;BME280;65974;42.664;23.264;2023-07-31T12:41:06;94020.97;;;27.04;38.46
77041;BME280;65974;42.664;23.264;2023-07-31T12:43:36;94014.97;;;26.88;39.07
77041;BME280;65974;42.664;23.264;2023-07-31T12:46:01;94018.66;;;26.80;38.22
77041;BME280;65974;42.664;23.264;2023-07-31T12:48:27;94016.09;;;26.60;38.32
77041;BME280;65974;42.664;23.264;2023-07-31T12:50:52;94010.34;;;26.58;38.99
77041;BME280;65974;42.664;23.264;2023-07-31T12:53:17;94010.50;;;26.97;39.47
77041;BME280;65974;42.664;23.264;2023-07-31T12:55:43;94007.66;;;27.50;38.30
77041;BME280;65974;42.664;23.264;2023-07-31T12:58:09;93994.97;;;27.80;38.22
77041;BME280;65974;42.664;23.264;2023-07-31T13:00:34;93989.47;;;27.97;37.92